Time;durP1;ratioP1;P1;durP2;ratioP2;P2;SDS_P1;SDS_P2;PMS_P1;PMS_P2;Temp;Humidity;BMP_temperature;BMP_pressure;BME280_temperature;BME280_humidity;BME280_pressure;Samples;Min_cycle;Max_cycle;Signal;HPM_P1;HPM_P2
2024/04/04 00:02:05;;;;;;;16.67;3.47;;;10.70;99.90;;;;;;4971239;28;20081;-67
2024/04/04 00:04:31;;;;;;;19.10;4.03;;;10.70;99.90;;;;;;4983356;28;20404;-67
2024/04/04 00:06:57;;;;;;;14.30;3.13;;;10.70;99.90;;;;;;4985835;28;20042;-67
2024/04/04 00:09:22;;;;;;;14.23;2.83;;;10.70;99.90;;;;;;4983358;28;20046;-67
2024/04/04 00:11:51;;;;;;;20.10;3.20;;;10.70;99.90;;;;;;4984785;28;20034;-67
2024/04/04 00:14:17;;;;;;;10.70;2.40;;;10.80;99.90;;;;;;4982045;28;20039;-67
2024/04/04 00:16:42;;;;;;;15.52;2.60;;;10.70;99.90;;;;;;4986477;28;20096;-67
2024/04/04 00:19:09;;;;;;;12.80;2.40;;;10.70;99.90;;;;;;4999845;28;20034;-67
2024/04/04 00:21:35;;;;;;;13.38;3.17;;;10.70;99.90;;;;;;4983616;28;20035;-67
2024/04/04 00:24:01;;;;;;;12.65;2.65;;;10.70;99.90;;;;;;4982788;28;20070;-67
2024/04/04 00:26:27;;;;;;;12.93;2.88;;;10.70;99.90;;;;;;4985408;28;20125;-67
2024/04/04 00:28:53;;;;;;;18.23;3.08;;;10.70;99.90;;;;;;4980824;28;20084;-67
2024/04/04 00:31:19;;;;;;;16.40;3.13;;;10.70;99.90;;;;;;4983630;28;20085;-67
2024/04/04 00:33:45;;;;;;;16.15;3.67;;;10.60;99.90;;;;;;4985802;28;20069;-67
2024/04/04 00:36:11;;;;;;;11.95;2.67;;;10.60;99.90;;;;;;4985039;28;20493;-67
2024/04/04 00:38:37;;;;;;;12.27;2.53;;;10.60;99.90;;;;;;4983905;28;20080;-67
2024/04/04 00:41:03;;;;;;;11.80;2.70;;;10.60;99.90;;;;;;4980450;28;20485;-67
2024/04/04 00:43:29;;;;;;;12.35;1.98;;;10.60;99.90;;;;;;4980510;28;20453;-67
2024/04/04 00:45:57;;;;;;;13.55;2.95;;;10.60;99.90;;;;;;4984065;28;20047;-67
2024/04/04 00:48:24;;;;;;;17.00;3.42;;;10.60;99.90;;;;;;4980968;28;20512;-67
2024/04/04 00:50:51;;;;;;;14.02;2.80;;;10.60;99.90;;;;;;4980590;28;20042;-67
2024/04/04 00:53:17;;;;;;;12.02;2.50;;;10.60;99.90;;;;;;4981123;28;20043;-67
2024/04/04 00:55:44;;;;;;;12.68;2.42;;;10.70;99.90;;;;;;4984845;28;20085;-67
2024/04/04 00:58:09;;;;;;;16.42;3.15;;;10.50;99.90;;;;;;4980999;28;20142;-67
2024/04/04 01:00:35;;;;;;;11.90;3.75;;;10.50;99.90;;;;;;4995858;28;20137;-67
2024/04/04 01:03:01;;;;;;;11.77;3.35;;;10.60;99.90;;;;;;4981962;28;20388;-67
2024/04/04 01:05:26;;;;;;;16.45;2.78;;;10.50;99.90;;;;;;4982714;28;20109;-67
2024/04/04 01:07:53;;;;;;;11.77;2.55;;;10.50;99.90;;;;;;4966847;28;20134;-67
2024/04/04 01:10:19;;;;;;;9.38;2.10;;;10.50;99.90;;;;;;4980430;28;20046;-67
2024/04/04 01:12:44;;;;;;;14.68;2.50;;;10.40;99.90;;;;;;4987121;28;20496;-67
2024/04/04 01:15:10;;;;;;;11.77;2.53;;;10.50;99.90;;;;;;4985275;28;20034;-67
2024/04/04 01:17:36;;;;;;;13.73;2.45;;;10.40;99.90;;;;;;4983816;28;20100;-67
2024/04/04 01:20:02;;;;;;;11.73;3.15;;;10.40;99.90;;;;;;4985089;28;20026;-67
2024/04/04 01:22:28;;;;;;;15.15;2.45;;;10.40;99.90;;;;;;4984656;28;20034;-67
2024/04/04 01:24:53;;;;;;;13.07;2.63;;;10.40;99.90;;;;;;5016382;28;20047;-67
2024/04/04 01:27:19;;;;;;;13.23;2.65;;;10.40;99.90;;;;;;5018114;28;20057;-67
2024/04/04 01:29:45;;;;;;;11.68;1.95;;;10.30;99.90;;;;;;4986277;28;20046;-67
2024/04/04 01:32:10;;;;;;;10.88;2.20;;;10.20;99.90;;;;;;4985913;28;20353;-67
2024/04/04 01:34:36;;;;;;;12.88;2.47;;;10.20;99.90;;;;;;4983738;28;20472;-67
2024/04/04 01:37:01;;;;;;;10.35;2.45;;;10.20;99.90;;;;;;4984415;28;20081;-67
2024/04/04 01:39:27;;;;;;;10.27;1.95;;;10.10;99.90;;;;;;4984532;28;20038;-67
2024/04/04 01:41:56;;;;;;;10.65;1.95;;;10.10;99.90;;;;;;4986000;28;20034;-67
2024/04/04 01:44:22;;;;;;;11.02;3.10;;;10.00;99.90;;;;;;4987301;28;20034;-67
2024/04/04 01:46:48;;;;;;;12.43;2.35;;;10.00;99.90;;;;;;4982930;28;20054;-67
2024/04/04 01:49:15;;;;;;;13.93;1.92;;;9.90;99.90;;;;;;4988222;28;20046;-67
2024/04/04 01:51:41;;;;;;;10.93;2.80;;;9.80;99.90;;;;;;4984703;28;20046;-67
2024/04/04 01:54:07;;;;;;;11.63;2.53;;;9.90;99.90;;;;;;4983043;28;20038;-67
2024/04/04 01:56:33;;;;;;;13.15;1.98;;;9.70;99.90;;;;;;4986820;28;20546;-67
2024/04/04 01:58:58;;;;;;;12.73;2.25;;;9.70;99.90;;;;;;4987335;28;20548;-67
2024/04/04 02:01:24;;;;;;;12.82;3.15;;;9.60;99.90;;;;;;4982930;28;20038;-67
2024/04/04 02:03:49;;;;;;;15.35;3.92;;;9.60;99.90;;;;;;4985572;28;20038;-67
2024/04/04 02:06:15;;;;;;;11.02;2.05;;;9.60;99.90;;;;;;4984457;28;20046;-67
2024/04/04 02:08:40;;;;;;;9.13;1.70;;;9.50;99.90;;;;;;5016178;28;20046;-67
2024/04/04 02:11:06;;;;;;;12.88;2.00;;;9.50;99.90;;;;;;4986646;28;20539;-67
2024/04/04 02:13:32;;;;;;;12.57;2.42;;;9.50;99.90;;;;;;4988017;28;20042;-67
2024/04/04 02:15:58;;;;;;;10.43;1.98;;;9.40;99.90;;;;;;4982904;28;20129;-67
2024/04/04 02:18:24;;;;;;;12.50;2.00;;;9.50;99.90;;;;;;5016168;28;20702;-67
2024/04/04 02:20:50;;;;;;;10.90;2.20;;;9.40;99.90;;;;;;4984358;28;20493;-67
2024/04/04 02:23:16;;;;;;;11.55;2.00;;;9.40;99.90;;;;;;4987496;28;20041;-67
2024/04/04 02:25:42;;;;;;;9.60;1.98;;;9.30;99.90;;;;;;4985740;28;20057;-67
2024/04/04 02:28:09;;;;;;;11.10;2.08;;;9.30;99.90;;;;;;4983421;28;20044;-67
2024/04/04 02:30:37;;;;;;;12.90;2.05;;;9.30;99.90;;;;;;5017338;28;20131;-67
2024/04/04 02:33:03;;;;;;;12.25;2.45;;;9.20;99.90;;;;;;4985886;28;20049;-67
2024/04/04 02:35:28;;;;;;;8.90;1.95;;;9.20;99.90;;;;;;4985835;28;20129;-67
2024/04/04 02:37:54;;;;;;;12.10;2.38;;;9.30;99.90;;;;;;4987078;28;20146;-67
2024/04/04 02:40:19;;;;;;;10.02;2.10;;;9.10;99.90;;;;;;4984426;28;20035;-67
2024/04/04 02:42:45;;;;;;;11.82;2.85;;;9.10;99.90;;;;;;4983660;28;20761;-67
2024/04/04 02:45:11;;;;;;;8.45;1.63;;;9.10;99.90;;;;;;4985255;28;20042;-67
2024/04/04 02:47:37;;;;;;;10.98;2.20;;;9.10;99.90;;;;;;4983876;28;20034;-67
2024/04/04 02:50:03;;;;;;;12.00;1.65;;;9.00;99.90;;;;;;5018533;28;20072;-67
2024/04/04 02:52:29;;;;;;;15.65;2.45;;;9.00;99.90;;;;;;4981994;28;20061;-67
2024/04/04 02:54:54;;;;;;;10.98;2.30;;;9.00;99.90;;;;;;4985603;28;20034;-67
2024/04/04 02:57:20;;;;;;;5.75;1.55;;;9.00;99.90;;;;;;4986213;28;20073;-67
2024/04/04 02:59:46;;;;;;;8.82;2.13;;;8.90;99.90;;;;;;4984750;28;20034;-67
2024/04/04 03:02:12;;;;;;;10.60;1.85;;;8.90;99.90;;;;;;4984047;28;20444;-67
2024/04/04 03:04:38;;;;;;;10.95;2.20;;;9.00;99.90;;;;;;4985482;28;20047;-67
2024/04/04 03:07:04;;;;;;;9.98;2.38;;;8.90;99.90;;;;;;4984975;28;20128;-67
2024/04/04 03:09:31;;;;;;;8.88;1.35;;;8.90;99.90;;;;;;4984373;28;20532;-66
2024/04/04 03:11:56;;;;;;;13.65;3.25;;;8.80;99.90;;;;;;4985240;28;20049;-67
2024/04/04 03:14:22;;;;;;;10.85;2.03;;;8.80;99.90;;;;;;4982460;28;20039;-67
2024/04/04 03:16:48;;;;;;;14.70;1.95;;;8.80;99.90;;;;;;4984747;28;20090;-67
2024/04/04 03:19:13;;;;;;;9.90;1.77;;;8.80;99.90;;;;;;4984570;28;20136;-67
2024/04/04 03:21:39;;;;;;;7.05;1.48;;;8.70;99.90;;;;;;4985118;28;20516;-67
2024/04/04 03:24:05;;;;;;;12.07;1.45;;;8.70;99.90;;;;;;4985009;28;20066;-67
2024/04/04 03:26:31;;;;;;;10.82;2.10;;;8.70;99.90;;;;;;4983003;28;20046;-67
2024/04/04 03:28:57;;;;;;;11.82;2.47;;;8.70;99.90;;;;;;4981985;28;20089;-67
2024/04/04 03:31:22;;;;;;;9.10;1.95;;;8.70;99.90;;;;;;4984055;28;20034;-67
2024/04/04 03:33:50;;;;;;;9.02;1.60;;;8.70;99.90;;;;;;4983339;28;20046;-67
2024/04/04 03:36:16;;;;;;;10.00;2.47;;;8.70;99.90;;;;;;4983086;28;20038;-67
2024/04/04 03:38:41;;;;;;;7.85;1.60;;;8.70;99.90;;;;;;4983382;28;20366;-67
2024/04/04 03:41:07;;;;;;;7.95;1.90;;;8.70;99.90;;;;;;4982131;28;20133;-67
2024/04/04 03:43:33;;;;;;;7.22;1.35;;;8.70;99.90;;;;;;5015601;28;20481;-67
2024/04/04 03:46:06;;;;;;;9.00;2.25;;;8.80;99.90;;;;;;4982147;28;20405;-67
2024/04/04 03:48:34;;;;;;;9.63;2.33;;;8.80;99.90;;;;;;4981452;28;20038;-67
2024/04/04 03:51:00;;;;;;;10.30;1.17;;;8.80;99.90;;;;;;4986014;28;20504;-67
2024/04/04 03:53:26;;;;;;;14.80;1.85;;;8.80;99.90;;;;;;4983233;28;20061;-67
2024/04/04 03:55:51;;;;;;;11.80;2.53;;;8.80;99.90;;;;;;4983112;28;20038;-67
2024/04/04 03:58:18;;;;;;;6.55;1.25;;;8.80;99.90;;;;;;4985337;28;20216;-67
2024/04/04 04:00:45;;;;;;;9.77;1.77;;;8.80;99.90;;;;;;4983849;28;20034;-67
2024/04/04 04:03:10;;;;;;;8.48;1.65;;;8.90;99.90;;;;;;4981192;28;20038;-67
2024/04/04 04:05:36;;;;;;;7.57;1.52;;;8.90;99.90;;;;;;5016046;28;20433;-67
2024/04/04 04:08:01;;;;;;;8.13;1.17;;;8.90;99.90;;;;;;4984424;28;20038;-67
2024/04/04 04:10:29;;;;;;;7.97;1.30;;;8.90;99.90;;;;;;4979619;28;20034;-67
2024/04/04 04:12:55;;;;;;;8.95;2.58;;;8.90;99.90;;;;;;5011057;28;20125;-67
2024/04/04 04:15:21;;;;;;;9.05;1.75;;;9.00;99.90;;;;;;4979339;28;20142;-67
2024/04/04 04:17:47;;;;;;;6.60;1.05;;;9.00;99.90;;;;;;4980628;28;20034;-67
2024/04/04 04:22:56;;;;;;;7.90;1.80;;;9.00;99.90;;;;;;4983611;28;20394;-67
2024/04/04 04:25:22;;;;;;;8.52;0.93;;;9.00;99.90;;;;;;4980560;28;20039;-67
2024/04/04 04:27:48;;;;;;;8.13;1.30;;;8.90;99.90;;;;;;4979421;28;20046;-67
2024/04/04 04:30:14;;;;;;;7.65;1.42;;;8.90;99.90;;;;;;4986145;28;20061;-67
2024/04/04 04:32:40;;;;;;;6.47;1.00;;;9.00;99.90;;;;;;4982199;28;20034;-67
2024/04/04 04:35:06;;;;;;;11.00;1.02;;;9.00;99.90;;;;;;4982116;28;20054;-67
2024/04/04 04:37:33;;;;;;;6.63;0.82;;;9.00;99.90;;;;;;4983317;28;20039;-67
2024/04/04 04:39:59;;;;;;;6.40;1.30;;;9.00;99.90;;;;;;4976018;28;20796;-67
2024/04/04 04:42:24;;;;;;;3.60;0.65;;;9.00;99.90;;;;;;4983023;28;20038;-67
2024/04/04 04:44:50;;;;;;;6.13;0.88;;;9.10;99.90;;;;;;4982243;28;20046;-67
2024/04/04 04:47:16;;;;;;;5.43;0.60;;;9.00;99.90;;;;;;5010224;28;20039;-67
2024/04/04 04:49:42;;;;;;;7.80;1.58;;;9.10;99.90;;;;;;4981980;28;20443;-67
2024/04/04 04:52:07;;;;;;;5.75;1.35;;;9.10;99.90;;;;;;4985485;28;20042;-67
2024/04/04 04:54:33;;;;;;;2.55;0.77;;;9.10;99.90;;;;;;5014284;28;20134;-67
2024/04/04 04:57:01;;;;;;;4.47;1.05;;;9.10;99.90;;;;;;4982898;28;20042;-67
2024/04/04 04:59:26;;;;;;;3.83;0.98;;;9.10;99.90;;;;;;4988855;28;20140;-67
2024/04/04 05:01:52;;;;;;;6.10;0.70;;;9.10;99.90;;;;;;4988747;28;20042;-67
2024/04/04 05:04:19;;;;;;;4.20;0.95;;;9.30;99.90;;;;;;4987266;28;20407;-67
2024/04/04 05:06:46;;;;;;;4.10;0.80;;;9.20;99.90;;;;;;4986823;28;20043;-67
2024/04/04 05:09:13;;;;;;;2.67;0.93;;;9.20;99.90;;;;;;4988778;28;20480;-67
2024/04/04 05:11:38;;;;;;;5.15;1.05;;;9.20;99.90;;;;;;4985888;28;20046;-67
2024/04/04 05:14:04;;;;;;;6.07;1.20;;;9.20;99.90;;;;;;4987984;28;20503;-67
2024/04/04 05:16:30;;;;;;;8.15;1.95;;;9.20;99.90;;;;;;5018937;28;20620;-67
2024/04/04 05:18:56;;;;;;;6.35;1.23;;;9.20;99.90;;;;;;4986504;28;20065;-67
2024/04/04 05:21:21;;;;;;;6.43;1.38;;;9.40;99.90;;;;;;4987011;28;20397;-67
2024/04/04 05:23:47;;;;;;;5.90;1.27;;;9.20;99.90;;;;;;4984806;28;20034;-67
2024/04/04 05:26:13;;;;;;;5.88;1.00;;;9.20;99.90;;;;;;5016328;28;20057;-67
2024/04/04 05:28:39;;;;;;;5.38;1.23;;;9.20;99.90;;;;;;4984942;28;20053;-67
2024/04/04 05:31:05;;;;;;;7.47;1.30;;;9.20;99.90;;;;;;4982661;28;20043;-67
2024/04/04 05:33:30;;;;;;;6.07;1.42;;;9.20;99.90;;;;;;4983840;28;20093;-67
2024/04/04 05:35:56;;;;;;;5.53;1.48;;;9.10;99.90;;;;;;4984015;28;20045;-67
2024/04/04 05:38:21;;;;;;;11.23;2.63;;;9.10;99.90;;;;;;4985525;28;20049;-67
2024/04/04 05:40:48;;;;;;;5.72;1.40;;;9.10;99.90;;;;;;4983472;28;20035;-67
2024/04/04 05:43:13;;;;;;;8.85;2.05;;;9.10;99.90;;;;;;4985254;28;20085;-67
2024/04/04 05:45:39;;;;;;;5.18;1.65;;;9.20;99.90;;;;;;4985183;28;20050;-68
2024/04/04 05:48:05;;;;;;;6.57;1.75;;;9.20;99.90;;;;;;4983551;28;20508;-68
2024/04/04 05:50:31;;;;;;;6.78;2.17;;;9.20;99.90;;;;;;4984901;28;20049;-68
2024/04/04 05:52:56;;;;;;;3.67;1.73;;;9.20;99.90;;;;;;4985900;28;20042;-67
2024/04/04 05:55:22;;;;;;;6.70;1.90;;;9.20;99.90;;;;;;4983624;28;20512;-68
2024/04/04 05:57:48;;;;;;;6.88;2.60;;;9.20;99.90;;;;;;4984693;28;20034;-68
2024/04/04 06:00:14;;;;;;;9.85;2.45;;;9.20;99.90;;;;;;4980485;28;20060;-67
2024/04/04 06:02:40;;;;;;;9.43;2.47;;;9.20;99.90;;;;;;4982728;28;20039;-67
2024/04/04 06:05:06;;;;;;;5.18;1.83;;;9.10;99.90;;;;;;4986441;28;20227;-67
2024/04/04 06:07:32;;;;;;;9.20;2.30;;;9.20;99.90;;;;;;4986736;28;20076;-69
2024/04/04 06:09:58;;;;;;;7.60;2.65;;;9.20;99.90;;;;;;4979794;28;20050;-68
2024/04/04 06:12:24;;;;;;;5.78;2.40;;;9.20;99.90;;;;;;4979114;28;20042;-68
2024/04/04 06:14:50;;;;;;;6.50;2.60;;;9.20;99.90;;;;;;4985826;28;20485;-67
2024/04/04 06:17:16;;;;;;;5.78;2.53;;;9.30;99.90;;;;;;4981445;28;20047;-67
2024/04/04 06:19:42;;;;;;;8.50;2.53;;;9.20;99.90;;;;;;4982979;28;20046;-67
2024/04/04 06:22:07;;;;;;;7.22;2.50;;;9.30;99.90;;;;;;4980700;28;20046;-67
2024/04/04 06:24:33;;;;;;;7.53;2.75;;;9.30;99.90;;;;;;4982874;28;20042;-67
2024/04/04 06:26:59;;;;;;;5.95;2.50;;;9.20;99.90;;;;;;4979910;28;20046;-67
2024/04/04 06:29:25;;;;;;;5.82;2.63;;;9.20;99.90;;;;;;4979893;28;20041;-67
2024/04/04 06:31:50;;;;;;;10.38;2.67;;;9.30;99.90;;;;;;4982648;28;20034;-67
2024/04/04 06:34:16;;;;;;;7.85;2.90;;;9.30;99.90;;;;;;4982118;28;20039;-67
2024/04/04 06:36:42;;;;;;;9.05;2.80;;;9.30;99.90;;;;;;4979730;28;20043;-67
2024/04/04 06:39:09;;;;;;;5.68;2.55;;;9.30;99.90;;;;;;4982802;28;20062;-67
2024/04/04 06:41:35;;;;;;;7.55;2.65;;;9.20;99.90;;;;;;4981851;28;20124;-67
2024/04/04 06:44:01;;;;;;;10.80;3.08;;;9.30;99.90;;;;;;4982126;28;20049;-67
2024/04/04 06:46:27;;;;;;;7.13;2.97;;;9.30;99.90;;;;;;4988719;28;20049;-67
2024/04/04 06:48:53;;;;;;;5.47;2.58;;;9.40;99.90;;;;;;4983176;28;20038;-67
2024/04/04 06:51:18;;;;;;;6.00;2.78;;;9.30;99.90;;;;;;4979392;28;20074;-67
2024/04/04 06:53:44;;;;;;;5.55;3.38;;;9.40;99.90;;;;;;4983287;28;20133;-67
2024/04/04 06:56:10;;;;;;;6.75;2.90;;;9.40;99.90;;;;;;4981219;28;20046;-68
2024/04/04 06:58:35;;;;;;;5.60;2.72;;;9.40;99.90;;;;;;4981963;28;20078;-68
2024/04/04 07:01:01;;;;;;;6.57;3.05;;;9.40;99.90;;;;;;4981944;28;20781;-68
2024/04/04 07:03:27;;;;;;;6.03;2.83;;;9.50;99.90;;;;;;4980629;28;20062;-68
2024/04/04 07:05:53;;;;;;;6.60;3.28;;;9.50;99.90;;;;;;4986173;28;20385;-68
2024/04/04 07:08:19;;;;;;;5.28;2.70;;;9.50;99.90;;;;;;5017563;28;20723;-67
2024/04/04 07:10:45;;;;;;;6.95;3.13;;;9.60;99.90;;;;;;5015727;28;20042;-67
2024/04/04 07:13:13;;;;;;;7.53;3.22;;;9.60;99.90;;;;;;4984020;28;20046;-67
2024/04/04 07:15:38;;;;;;;5.63;2.90;;;9.60;99.90;;;;;;4986118;28;20061;-67
2024/04/04 07:18:09;;;;;;;4.60;2.50;;;9.70;99.90;;;;;;4981252;28;20412;-67
2024/04/04 07:20:36;;;;;;;6.97;3.53;;;9.70;99.90;;;;;;4990647;28;20061;-67
2024/04/04 07:23:01;;;;;;;3.40;3.00;;;9.70;99.90;;;;;;4996800;28;20057;-67
2024/04/04 07:25:27;;;;;;;4.57;3.75;;;9.70;99.90;;;;;;4978346;28;20038;-67
2024/04/04 07:27:52;;;;;;;3.88;3.05;;;9.80;99.90;;;;;;4982709;28;20049;-68
2024/04/04 07:30:18;;;;;;;7.03;3.35;;;9.90;99.90;;;;;;4984191;28;20416;-68
2024/04/04 07:32:43;;;;;;;6.25;3.85;;;10.20;99.90;;;;;;5011783;28;20045;-67
2024/04/04 07:35:09;;;;;;;4.80;4.28;;;9.90;99.90;;;;;;4980148;28;20038;-67
2024/04/04 07:37:35;;;;;;;5.40;4.47;;;9.90;99.90;;;;;;4984304;28;20125;-67
2024/04/04 07:40:00;;;;;;;5.35;4.13;;;9.90;99.90;;;;;;4984886;28;20034;-67
2024/04/04 07:42:26;;;;;;;3.90;3.50;;;10.00;99.90;;;;;;4981634;28;20035;-67
2024/04/04 07:44:51;;;;;;;4.55;3.90;;;10.10;99.90;;;;;;4979233;28;20084;-68
2024/04/04 07:47:17;;;;;;;7.15;3.80;;;10.20;99.90;;;;;;4981852;28;20515;-68
2024/04/04 07:49:43;;;;;;;4.97;4.45;;;10.20;99.90;;;;;;5011322;28;20050;-68
2024/04/04 07:52:09;;;;;;;5.88;3.50;;;10.20;99.90;;;;;;4983030;28;20061;-67
2024/04/04 07:54:35;;;;;;;3.78;3.47;;;10.30;99.90;;;;;;4978809;28;20047;-67
2024/04/04 07:57:00;;;;;;;5.28;3.60;;;10.40;99.90;;;;;;4977954;28;20100;-67
2024/04/04 07:59:26;;;;;;;4.72;3.55;;;10.50;99.90;;;;;;4980722;28;20078;-68
2024/04/04 08:01:53;;;;;;;3.63;3.10;;;10.40;99.90;;;;;;4977716;28;20048;-68
2024/04/04 08:04:19;;;;;;;3.70;3.40;;;10.40;99.90;;;;;;5013903;28;20050;-68
2024/04/04 08:06:45;;;;;;;6.22;3.53;;;10.50;99.90;;;;;;4980173;28;20043;-68
2024/04/04 08:09:11;;;;;;;3.78;3.45;;;10.50;99.90;;;;;;4984073;28;20050;-68
2024/04/04 08:11:37;;;;;;;3.33;3.00;;;10.50;99.90;;;;;;4982920;28;20050;-67
2024/04/04 08:14:03;;;;;;;5.70;2.53;;;10.70;99.90;;;;;;4982657;28;20038;-67
2024/04/04 08:16:29;;;;;;;4.45;3.70;;;10.60;99.90;;;;;;4980917;28;20039;-67
2024/04/04 08:18:55;;;;;;;5.75;3.30;;;10.60;99.90;;;;;;4979130;28;20524;-67
2024/04/04 08:21:21;;;;;;;4.97;2.72;;;10.60;99.90;;;;;;4979918;28;20034;-67
2024/04/04 08:23:46;;;;;;;3.83;3.30;;;10.60;99.90;;;;;;4964202;28;20046;-67
2024/04/04 08:26:12;;;;;;;4.63;3.00;;;10.70;99.90;;;;;;4980593;28;20077;-68
2024/04/04 08:28:38;;;;;;;5.38;2.15;;;10.80;99.90;;;;;;4983007;28;20038;-68
2024/04/04 08:31:09;;;;;;;2.80;2.50;;;10.80;99.90;;;;;;4980671;28;20517;-68
2024/04/04 08:33:35;;;;;;;2.88;1.70;;;10.90;99.90;;;;;;4981957;28;20039;-68
2024/04/04 08:36:01;;;;;;;2.20;2.00;;;10.90;99.90;;;;;;4981054;28;20085;-68
2024/04/04 08:38:27;;;;;;;3.03;2.15;;;11.00;99.90;;;;;;4983152;28;20050;-68
2024/04/04 08:41:04;;;;;;;3.47;2.40;;;10.90;99.90;;;;;;4980892;28;20050;-68
2024/04/04 08:43:30;;;;;;;2.13;2.00;;;11.00;99.90;;;;;;4974988;28;20034;-68
2024/04/04 08:45:59;;;;;;;2.47;2.20;;;11.10;99.90;;;;;;4980615;28;20058;-68
2024/04/04 08:48:26;;;;;;;2.05;1.52;;;11.20;99.90;;;;;;4981646;28;20073;-68
2024/04/04 08:50:51;;;;;;;2.10;1.92;;;11.20;99.90;;;;;;4980845;28;20030;-68
2024/04/04 08:53:22;;;;;;;4.05;2.75;;;11.30;99.90;;;;;;4981314;28;20074;-68
2024/04/04 08:55:50;;;;;;;2.95;2.03;;;11.20;99.90;;;;;;5011888;28;20046;-68
2024/04/04 08:58:16;;;;;;;2.92;1.75;;;11.30;99.90;;;;;;4982283;28;20046;-68
2024/04/04 09:00:43;;;;;;;2.53;1.95;;;11.30;99.90;;;;;;4980109;28;20034;-68
2024/04/04 09:03:11;;;;;;;2.10;1.90;;;11.30;99.90;;;;;;4982713;28;20030;-68
2024/04/04 09:05:49;;;;;;;2.92;1.70;;;11.30;99.90;;;;;;5010805;28;20102;-68
2024/04/04 09:08:15;;;;;;;2.95;1.83;;;11.40;99.90;;;;;;4973659;28;20101;-68
2024/04/04 09:10:42;;;;;;;1.77;1.55;;;11.40;99.90;;;;;;4979860;28;20502;-67
2024/04/04 09:13:08;;;;;;;2.15;1.85;;;11.40;99.90;;;;;;4980798;28;20056;-67
2024/04/04 09:15:37;;;;;;;2.65;1.67;;;11.40;99.90;;;;;;4979543;28;20561;-67
2024/04/04 09:18:11;;;;;;;1.98;1.77;;;11.50;99.90;;;;;;4981421;28;20054;-67
2024/04/04 09:20:39;;;;;;;3.55;1.67;;;11.50;99.90;;;;;;4981092;28;20042;-67
2024/04/04 09:23:09;;;;;;;2.85;1.98;;;11.60;99.90;;;;;;4980508;28;20089;-67
2024/04/04 09:25:36;;;;;;;3.08;1.73;;;11.70;99.90;;;;;;4979958;28;20816;-67
2024/04/04 09:28:06;;;;;;;3.88;2.42;;;11.70;99.90;;;;;;4983183;28;20085;-67
2024/04/04 09:30:32;;;;;;;2.78;2.13;;;11.70;99.90;;;;;;4985030;28;20397;-67
2024/04/04 09:32:59;;;;;;;5.35;2.15;;;11.70;99.90;;;;;;4983262;28;20168;-67
2024/04/04 09:35:24;;;;;;;2.35;1.63;;;11.70;99.90;;;;;;4986734;28;20054;-67
2024/04/04 09:37:51;;;;;;;4.88;2.38;;;11.80;99.90;;;;;;5012777;28;20046;-67
2024/04/04 09:40:17;;;;;;;6.88;2.33;;;11.80;99.90;;;;;;4983220;28;20043;-67
2024/04/04 09:42:44;;;;;;;3.05;2.00;;;11.90;99.90;;;;;;4990241;28;20475;-67
2024/04/04 09:45:12;;;;;;;2.83;2.13;;;11.80;99.90;;;;;;4983329;28;20131;-67
2024/04/04 09:47:46;;;;;;;3.75;2.42;;;11.90;99.90;;;;;;4987623;28;20105;-67
2024/04/04 09:50:18;;;;;;;5.13;2.70;;;11.80;99.90;;;;;;4990534;28;20045;-67
2024/04/04 09:52:44;;;;;;;3.85;2.53;;;11.90;99.90;;;;;;4972914;28;20058;-67
2024/04/04 09:55:18;;;;;;;3.97;2.83;;;11.90;99.90;;;;;;4984818;28;20064;-67
2024/04/04 09:57:45;;;;;;;4.22;2.88;;;11.90;99.90;;;;;;4982722;28;20444;-68
2024/04/04 10:00:16;;;;;;;4.90;2.83;;;11.90;99.90;;;;;;4984610;28;20448;-68
2024/04/04 10:02:48;;;;;;;5.20;2.58;;;11.90;99.90;;;;;;4985219;28;20130;-68
2024/04/04 10:05:40;;;;;;;4.05;2.55;;;11.80;99.90;;;;;;4983003;28;20046;-68
2024/04/04 10:08:08;;;;;;;4.32;2.42;;;11.90;99.90;;;;;;4980755;28;20074;-68
2024/04/04 10:10:34;;;;;;;7.07;2.70;;;11.90;99.90;;;;;;4983548;28;20389;-68
2024/04/04 10:13:05;;;;;;;6.22;2.75;;;11.80;99.90;;;;;;4979964;28;20105;-68
2024/04/04 10:15:43;;;;;;;4.45;2.22;;;11.80;99.90;;;;;;4983008;28;20072;-68
2024/04/04 10:18:10;;;;;;;3.65;2.03;;;11.80;99.90;;;;;;4981434;28;20043;-68
2024/04/04 10:20:39;;;;;;;2.40;1.40;;;11.80;99.90;;;;;;4986818;28;20034;-68
2024/04/04 10:23:05;;;;;;;1.98;0.80;;;11.80;99.90;;;;;;4984088;28;20473;-68
2024/04/04 10:25:33;;;;;;;2.63;0.70;;;11.70;99.90;;;;;;4971375;28;20095;-68
2024/04/04 10:28:07;;;;;;;2.55;0.73;;;11.70;99.90;;;;;;4984997;28;20076;-68
2024/04/04 10:30:40;;;;;;;1.70;0.88;;;11.60;99.90;;;;;;4983768;28;20458;-68
2024/04/04 10:33:07;;;;;;;2.20;0.40;;;11.70;99.90;;;;;;4982482;28;20066;-68
2024/04/04 10:35:33;;;;;;;1.60;0.60;;;11.60;99.90;;;;;;5001407;28;20116;-68
2024/04/04 10:38:11;;;;;;;4.88;1.40;;;12.10;99.90;;;;;;4986559;28;20030;-68
2024/04/04 10:40:38;;;;;;;2.88;1.52;;;11.80;99.90;;;;;;4986449;28;20042;-68
2024/04/04 10:43:06;;;;;;;4.72;2.10;;;11.90;99.90;;;;;;4980505;28;20043;-68
2024/04/04 10:45:31;;;;;;;7.60;3.05;;;12.00;99.90;;;;;;4984237;28;20038;-67
2024/04/04 10:47:58;;;;;;;5.95;3.05;;;12.20;99.90;;;;;;5012169;28;20533;-68
2024/04/04 10:50:29;;;;;;;8.75;2.90;;;12.30;99.90;;;;;;4984260;28;20129;-68
2024/04/04 10:52:55;;;;;;;7.60;2.88;;;12.40;99.90;;;;;;4966211;28;20046;-68
2024/04/04 10:55:22;;;;;;;7.20;2.90;;;12.50;99.90;;;;;;4982047;28;20093;-68
2024/04/04 10:57:51;;;;;;;9.02;2.38;;;12.50;99.90;;;;;;4990289;28;20044;-68
2024/04/04 11:00:19;;;;;;;7.70;2.85;;;12.40;99.90;;;;;;4980364;28;20078;-68
2024/04/04 11:02:49;;;;;;;10.10;2.65;;;12.40;99.90;;;;;;4980318;28;20081;-68
2024/04/04 11:05:16;;;;;;;7.45;2.13;;;12.40;99.90;;;;;;4983745;28;20074;-68
2024/04/04 11:07:43;;;;;;;7.18;2.15;;;12.30;99.90;;;;;;4980538;28;20042;-67
2024/04/04 11:10:13;;;;;;;9.25;2.47;;;12.20;99.90;;;;;;4978633;28;20042;-68
2024/04/04 11:12:40;;;;;;;9.38;2.20;;;12.30;99.90;;;;;;4982670;28;20125;-68
2024/04/04 11:15:06;;;;;;;7.38;1.50;;;12.30;99.90;;;;;;4979276;28;20038;-68
2024/04/04 11:17:34;;;;;;;4.50;1.35;;;12.40;99.90;;;;;;4986538;28;20042;-68
2024/04/04 11:20:14;;;;;;;5.50;1.70;;;12.40;99.90;;;;;;4982214;28;20085;-68
2024/04/04 11:22:42;;;;;;;7.57;1.50;;;12.60;99.90;;;;;;4984899;28;20057;-68
2024/04/04 11:25:08;;;;;;;5.28;1.25;;;12.40;99.90;;;;;;5015154;28;20041;-68
2024/04/04 11:27:36;;;;;;;9.20;1.38;;;12.50;99.90;;;;;;4982213;28;20061;-68
2024/04/04 11:30:03;;;;;;;10.43;1.88;;;12.60;99.90;;;;;;4984460;28;20050;-68
2024/04/04 11:32:28;;;;;;;10.10;1.90;;;12.60;99.90;;;;;;4983711;28;20045;-68
2024/04/04 11:34:54;;;;;;;10.18;1.70;;;12.40;99.90;;;;;;4982365;28;20497;-68
2024/04/04 11:37:19;;;;;;;4.45;0.85;;;12.40;99.90;;;;;;4983836;28;20473;-68
2024/04/04 11:39:46;;;;;;;5.97;0.68;;;12.30;99.90;;;;;;4982497;28;20039;-68
2024/04/04 11:42:11;;;;;;;4.35;0.57;;;12.10;99.90;;;;;;4977985;28;20045;-68
2024/04/04 11:44:37;;;;;;;8.13;1.95;;;12.50;99.90;;;;;;4979297;28;20436;-68
2024/04/04 11:47:03;;;;;;;6.97;1.10;;;12.30;99.90;;;;;;4982602;28;20035;-68
2024/04/04 11:49:30;;;;;;;10.07;1.20;;;12.70;99.90;;;;;;4981857;28;20065;-68
2024/04/04 11:51:56;;;;;;;11.73;1.48;;;13.20;99.90;;;;;;4983705;28;20038;-68
2024/04/04 11:54:22;;;;;;;10.75;2.00;;;13.50;99.90;;;;;;4984528;28;20038;-67
2024/04/04 11:56:48;;;;;;;8.18;1.75;;;13.80;99.90;;;;;;4980192;28;20533;-67
2024/04/04 11:59:14;;;;;;;7.72;1.60;;;13.80;99.90;;;;;;4979118;28;20054;-67
2024/04/04 12:01:40;;;;;;;7.75;1.88;;;13.90;99.90;;;;;;5011340;28;20131;-67
2024/04/04 12:04:08;;;;;;;9.05;1.55;;;14.10;99.90;;;;;;4980839;28;20043;-67
2024/04/04 12:06:34;;;;;;;9.88;1.73;;;13.80;99.90;;;;;;5012386;28;20117;-67
2024/04/04 12:09:00;;;;;;;8.93;1.48;;;13.70;99.90;;;;;;4977528;28;20117;-68
2024/04/04 12:11:26;;;;;;;11.55;1.65;;;13.60;99.90;;;;;;4978863;28;20173;-68
2024/04/04 12:13:52;;;;;;;9.40;2.33;;;13.50;99.90;;;;;;4979134;28;20090;-68
2024/04/04 12:16:20;;;;;;;10.35;2.05;;;13.50;99.90;;;;;;4982608;28;20046;-68
2024/04/04 12:21:30;;;;;;;12.07;1.90;;;13.80;99.90;;;;;;4981982;28;20043;-67
2024/04/04 12:23:56;;;;;;;16.35;3.03;;;14.00;99.90;;;;;;4980706;28;20453;-68
2024/04/04 12:26:23;;;;;;;11.57;2.40;;;14.30;99.90;;;;;;4978825;28;20046;-68
2024/04/04 12:28:52;;;;;;;9.63;2.42;;;14.40;99.90;;;;;;4981359;28;20058;-67
2024/04/04 12:31:19;;;;;;;11.77;1.50;;;14.40;99.90;;;;;;4982787;28;20057;-68
2024/04/04 12:33:45;;;;;;;9.63;1.98;;;14.30;99.90;;;;;;4975949;28;20058;-68
2024/04/04 12:36:11;;;;;;;10.73;2.10;;;14.20;99.90;;;;;;4979453;28;20131;-68
2024/04/04 12:38:37;;;;;;;9.20;2.10;;;14.10;99.90;;;;;;4976829;28;20031;-67
2024/04/04 12:41:02;;;;;;;13.90;2.65;;;14.10;99.90;;;;;;4976600;28;20500;-67
2024/04/04 12:43:28;;;;;;;12.65;2.15;;;14.00;99.90;;;;;;4980328;28;20175;-68
2024/04/04 12:46:02;;;;;;;14.93;2.75;;;13.90;99.90;;;;;;4982385;28;20081;-68
2024/04/04 12:48:28;;;;;;;11.10;2.35;;;13.80;99.90;;;;;;4974654;28;20046;-67
2024/04/04 12:50:54;;;;;;;15.40;2.35;;;13.70;99.90;;;;;;4978478;28;20055;-67